Sheridan, Colorado
Current Conditions -  °F | °C
As of 11:53 AM on Friday 24 Oct 2014 (Local Time) from KAPA Reporting Station
Broken Clouds Broken Clouds  
Wind Chill: 73°   Ceiling: 20000
Heat Index: 73°   Visibility: 10mi
Dew Point: 19°   Wind: 6mph
Humidity: 13%   Direction: 160°SSE
Pressure: 30.22"   Gusts: NA
Location:  39.6467°N, 105.009°W
Report Text: KAPA 241753Z 16005KT 10SM FEW150 BKN200 23/M07 A3022 RMK AO2 SLP173 T02281072 10233 20122 58000
Loading
Personal Weather Stations






























Interactive Weather Map
Tropical Storm Tracking
New forecast layout! Learn more

10-Day Weather Forecast

Advertisements
Track Severe Weather on mobile